X  Schlie├čen METAR Luftfahrt Wetterdaten     EDDM Munich Airport
Temperatur
16°C Temperatur
11°C Taupunkt
72% Feuchtigkeit



Wind
24 km/h
15 MPS
7 m/s
13 Ktn



230°
SW
Aktuelle Wetterlage

Area Gewitter Area Gewitter
Luftdruck 1004.06 (hPa) - 29.65 (inchHg)
Sichtweite 6 (Meile) - 9.7 (Km)
Flughafen
Flughafen Code EDDM

Position : Munich Airport
Entfernung: 73 (Km)

Metar:
EDDM 151620Z AUTO 23013KT 9999 VCTS FEW///CB 16/11 Q1004 TEMPO 28015G25KT TSRA SCT010 BKN025CB

Zeit: 15-04-2024 16:20 CEST